sensor_id;sensor_type;location;lat;lon;timestamp;temperature;humidity
3055;DHT22;1537;52.018;8.542;2023-04-10T00:03:21;6.20;99.90
3055;DHT22;1537;52.018;8.542;2023-04-10T00:06:47;6.20;99.90
3055;DHT22;1537;52.018;8.542;2023-04-10T00:10:12;6.20;99.90
3055;DHT22;1537;52.018;8.542;2023-04-10T00:13:35;6.20;99.90
3055;DHT22;1537;52.018;8.542;2023-04-10T00:17:01;6.10;99.90
3055;DHT22;1537;52.018;8.542;2023-04-10T00:20:26;6.00;99.90
3055;DHT22;1537;52.018;8.542;2023-04-10T00:23:50;5.90;99.90
3055;DHT22;1537;52.018;8.542;2023-04-10T00:27:15;5.90;99.90
3055;DHT22;1537;52.018;8.542;2023-04-10T00:30:39;5.80;99.90
3055;DHT22;1537;52.018;8.542;2023-04-10T00:34:04;5.90;99.90
3055;DHT22;1537;52.018;8.542;2023-04-10T00:37:32;5.70;99.90
3055;DHT22;1537;52.018;8.542;2023-04-10T00:40:57;5.70;99.90
3055;DHT22;1537;52.018;8.542;2023-04-10T00:44:20;5.70;99.90
3055;DHT22;1537;52.018;8.542;2023-04-10T00:47:45;5.70;99.90
3055;DHT22;1537;52.018;8.542;2023-04-10T00:51:10;5.70;99.90
3055;DHT22;1537;52.018;8.542;2023-04-10T00:54:36;5.70;99.90
3055;DHT22;1537;52.018;8.542;2023-04-10T00:58:03;5.50;99.90
3055;DHT22;1537;52.018;8.542;2023-04-10T01:01:27;5.60;99.90
3055;DHT22;1537;52.018;8.542;2023-04-10T01:04:54;5.40;99.90
3055;DHT22;1537;52.018;8.542;2023-04-10T01:08:25;5.40;99.90
3055;DHT22;1537;52.018;8.542;2023-04-10T01:12:01;5.30;99.90
3055;DHT22;1537;52.018;8.542;2023-04-10T01:15:27;5.10;99.90
3055;DHT22;1537;52.018;8.542;2023-04-10T01:18:59;5.10;99.90
3055;DHT22;1537;52.018;8.542;2023-04-10T01:22:33;5.10;99.90
3055;DHT22;1537;52.018;8.542;2023-04-10T01:26:03;5.00;99.90
3055;DHT22;1537;52.018;8.542;2023-04-10T01:29:33;5.00;99.90
3055;DHT22;1537;52.018;8.542;2023-04-10T01:33:00;4.90;99.90
3055;DHT22;1537;52.018;8.542;2023-04-10T01:36:27;4.90;99.90
3055;DHT22;1537;52.018;8.542;2023-04-10T01:39:58;4.80;99.90
3055;DHT22;1537;52.018;8.542;2023-04-10T01:43:24;4.80;99.90
3055;DHT22;1537;52.018;8.542;2023-04-10T01:46:52;4.70;99.90
3055;DHT22;1537;52.018;8.542;2023-04-10T01:50:17;4.80;99.90
3055;DHT22;1537;52.018;8.542;2023-04-10T01:53:43;4.80;99.90
3055;DHT22;1537;52.018;8.542;2023-04-10T01:57:09;4.80;99.90
3055;DHT22;1537;52.018;8.542;2023-04-10T02:00:46;4.90;99.90
3055;DHT22;1537;52.018;8.542;2023-04-10T02:04:12;4.80;99.90
3055;DHT22;1537;52.018;8.542;2023-04-10T02:07:43;4.80;99.90
3055;DHT22;1537;52.018;8.542;2023-04-10T02:11:14;4.70;99.90
3055;DHT22;1537;52.018;8.542;2023-04-10T02:14:46;4.70;99.90
3055;DHT22;1537;52.018;8.542;2023-04-10T02:18:18;4.80;99.90
3055;DHT22;1537;52.018;8.542;2023-04-10T02:21:47;4.70;99.90
3055;DHT22;1537;52.018;8.542;2023-04-10T02:25:11;4.70;99.90
3055;DHT22;1537;52.018;8.542;2023-04-10T02:28:36;4.60;99.90
3055;DHT22;1537;52.018;8.542;2023-04-10T02:32:01;4.60;99.90
3055;DHT22;1537;52.018;8.542;2023-04-10T02:35:25;4.80;99.90
3055;DHT22;1537;52.018;8.542;2023-04-10T02:38:53;4.90;99.90
3055;DHT22;1537;52.018;8.542;2023-04-10T02:42:23;4.90;99.90
3055;DHT22;1537;52.018;8.542;2023-04-10T02:45:56;5.00;99.90
3055;DHT22;1537;52.018;8.542;2023-04-10T02:49:24;5.00;99.90
3055;DHT22;1537;52.018;8.542;2023-04-10T02:52:49;5.60;99.90
3055;DHT22;1537;52.018;8.542;2023-04-10T02:56:14;5.80;99.90
3055;DHT22;1537;52.018;8.542;2023-04-10T02:59:41;6.10;99.90
3055;DHT22;1537;52.018;8.542;2023-04-10T03:03:05;6.30;99.90
3055;DHT22;1537;52.018;8.542;2023-04-10T03:06:42;6.60;99.90
3055;DHT22;1537;52.018;8.542;2023-04-10T03:10:08;6.80;99.90
3055;DHT22;1537;52.018;8.542;2023-04-10T03:13:33;7.30;99.90
3055;DHT22;1537;52.018;8.542;2023-04-10T03:16:58;7.60;99.90
3055;DHT22;1537;52.018;8.542;2023-04-10T03:20:23;8.00;99.90
3055;DHT22;1537;52.018;8.542;2023-04-10T03:23:48;8.40;99.50
3055;DHT22;1537;52.018;8.542;2023-04-10T03:27:12;8.70;98.60
3055;DHT22;1537;52.018;8.542;2023-04-10T03:30:37;8.80;98.30
3055;DHT22;1537;52.018;8.542;2023-04-10T03:34:02;8.90;97.90
3055;DHT22;1537;52.018;8.542;2023-04-10T03:37:26;9.00;97.60
3055;DHT22;1537;52.018;8.542;2023-04-10T03:40:50;8.90;97.40
3055;DHT22;1537;52.018;8.542;2023-04-10T03:44:17;9.00;97.30
3055;DHT22;1537;52.018;8.542;2023-04-10T03:47:42;9.00;97.00
3055;DHT22;1537;52.018;8.542;2023-04-10T03:51:09;9.00;96.70
3055;DHT22;1537;52.018;8.542;2023-04-10T03:54:34;9.10;96.50
3055;DHT22;1537;52.018;8.542;2023-04-10T03:58:00;9.10;96.30
3055;DHT22;1537;52.018;8.542;2023-04-10T04:01:25;9.20;95.80
3055;DHT22;1537;52.018;8.542;2023-04-10T04:04:56;9.20;95.60
3055;DHT22;1537;52.018;8.542;2023-04-10T04:08:40;9.20;95.10
3055;DHT22;1537;52.018;8.542;2023-04-10T04:12:23;9.20;95.10
3055;DHT22;1537;52.018;8.542;2023-04-10T04:16:06;9.30;94.80
3055;DHT22;1537;52.018;8.542;2023-04-10T04:19:48;9.30;94.80
3055;DHT22;1537;52.018;8.542;2023-04-10T04:23:42;9.20;94.70
3055;DHT22;1537;52.018;8.542;2023-04-10T04:27:29;9.20;94.50
3055;DHT22;1537;52.018;8.542;2023-04-10T04:31:02;9.20;94.40
3055;DHT22;1537;52.018;8.542;2023-04-10T04:34:45;9.30;94.20
3055;DHT22;1537;52.018;8.542;2023-04-10T04:38:29;9.30;93.90
3055;DHT22;1537;52.018;8.542;2023-04-10T04:42:04;9.30;93.80
3055;DHT22;1537;52.018;8.542;2023-04-10T04:45:42;9.30;93.70
3055;DHT22;1537;52.018;8.542;2023-04-10T04:49:25;9.30;93.70
3055;DHT22;1537;52.018;8.542;2023-04-10T04:53:10;9.30;93.80
3055;DHT22;1537;52.018;8.542;2023-04-10T04:56:53;9.20;94.00
3055;DHT22;1537;52.018;8.542;2023-04-10T05:00:26;9.20;94.20
3055;DHT22;1537;52.018;8.542;2023-04-10T05:03:53;9.20;94.00
3055;DHT22;1537;52.018;8.542;2023-04-10T05:07:31;9.20;94.00
3055;DHT22;1537;52.018;8.542;2023-04-10T05:11:16;9.30;93.80
3055;DHT22;1537;52.018;8.542;2023-04-10T05:15:13;9.30;93.60
3055;DHT22;1537;52.018;8.542;2023-04-10T05:19:12;9.50;93.30
3055;DHT22;1537;52.018;8.542;2023-04-10T05:22:50;9.60;93.20
3055;DHT22;1537;52.018;8.542;2023-04-10T05:26:41;9.60;92.80
3055;DHT22;1537;52.018;8.542;2023-04-10T05:30:36;9.90;92.30
3055;DHT22;1537;52.018;8.542;2023-04-10T05:34:24;10.20;91.10
3055;DHT22;1537;52.018;8.542;2023-04-10T05:38:26;10.40;90.50
3055;DHT22;1537;52.018;8.542;2023-04-10T05:42:23;10.60;89.90
3055;DHT22;1537;52.018;8.542;2023-04-10T05:45:59;10.60;90.00
3055;DHT22;1537;52.018;8.542;2023-04-10T05:49:43;10.60;89.30
3055;DHT22;1537;52.018;8.542;2023-04-10T05:53:32;10.80;88.00
3055;DHT22;1537;52.018;8.542;2023-04-10T05:57:17;10.80;87.40
3055;DHT22;1537;52.018;8.542;2023-04-10T06:00:41;11.30;85.20
3055;DHT22;1537;52.018;8.542;2023-04-10T06:04:32;11.40;84.70
3055;DHT22;1537;52.018;8.542;2023-04-10T06:07:58;11.40;84.50
3055;DHT22;1537;52.018;8.542;2023-04-10T06:11:25;11.70;83.40
3055;DHT22;1537;52.018;8.542;2023-04-10T06:14:51;12.20;81.70
3055;DHT22;1537;52.018;8.542;2023-04-10T06:18:18;12.30;80.00
3055;DHT22;1537;52.018;8.542;2023-04-10T06:21:43;12.30;79.40
3055;DHT22;1537;52.018;8.542;2023-04-10T06:25:09;12.30;79.80
3055;DHT22;1537;52.018;8.542;2023-04-10T06:28:33;12.10;80.30
3055;DHT22;1537;52.018;8.542;2023-04-10T06:31:59;11.90;80.80
3055;DHT22;1537;52.018;8.542;2023-04-10T06:35:29;11.70;81.40
3055;DHT22;1537;52.018;8.542;2023-04-10T06:38:53;11.60;81.90
3055;DHT22;1537;52.018;8.542;2023-04-10T06:42:20;11.70;82.30
3055;DHT22;1537;52.018;8.542;2023-04-10T06:45:59;11.70;82.40
3055;DHT22;1537;52.018;8.542;2023-04-10T06:49:23;11.90;82.30
3055;DHT22;1537;52.018;8.542;2023-04-10T06:52:48;12.20;81.90
3055;DHT22;1537;52.018;8.542;2023-04-10T06:56:22;12.40;81.20
3055;DHT22;1537;52.018;8.542;2023-04-10T06:59:50;12.50;80.90
3055;DHT22;1537;52.018;8.542;2023-04-10T07:03:15;12.60;80.50
3055;DHT22;1537;52.018;8.542;2023-04-10T07:06:39;13.20;79.00
3055;DHT22;1537;52.018;8.542;2023-04-10T07:10:04;13.60;77.70
3055;DHT22;1537;52.018;8.542;2023-04-10T07:13:29;14.00;75.20
3055;DHT22;1537;52.018;8.542;2023-04-10T07:16:55;14.10;74.00
3055;DHT22;1537;52.018;8.542;2023-04-10T07:20:19;14.40;72.90
3055;DHT22;1537;52.018;8.542;2023-04-10T07:23:44;14.40;72.60
3055;DHT22;1537;52.018;8.542;2023-04-10T07:27:11;14.50;71.90
3055;DHT22;1537;52.018;8.542;2023-04-10T07:30:36;15.00;69.40
3055;DHT22;1537;52.018;8.542;2023-04-10T07:34:02;14.50;70.30
3055;DHT22;1537;52.018;8.542;2023-04-10T07:37:26;15.00;69.10
3055;DHT22;1537;52.018;8.542;2023-04-10T07:40:54;14.80;67.10
3055;DHT22;1537;52.018;8.542;2023-04-10T07:44:18;15.30;66.50
3055;DHT22;1537;52.018;8.542;2023-04-10T07:47:42;15.00;67.50
3055;DHT22;1537;52.018;8.542;2023-04-10T07:51:08;15.10;65.40
3055;DHT22;1537;52.018;8.542;2023-04-10T07:54:32;15.40;65.20
3055;DHT22;1537;52.018;8.542;2023-04-10T07:57:56;15.40;64.20
3055;DHT22;1537;52.018;8.542;2023-04-10T08:01:20;15.40;63.90
3055;DHT22;1537;52.018;8.542;2023-04-10T08:04:44;15.40;63.70
3055;DHT22;1537;52.018;8.542;2023-04-10T08:08:09;15.40;63.40
3055;DHT22;1537;52.018;8.542;2023-04-10T08:11:34;15.70;63.30
3055;DHT22;1537;52.018;8.542;2023-04-10T08:15:00;16.00;61.00
3055;DHT22;1537;52.018;8.542;2023-04-10T08:18:23;15.80;60.70
3055;DHT22;1537;52.018;8.542;2023-04-10T08:21:47;15.60;59.80
3055;DHT22;1537;52.018;8.542;2023-04-10T08:25:12;15.50;59.40
3055;DHT22;1537;52.018;8.542;2023-04-10T08:28:36;16.00;59.50
3055;DHT22;1537;52.018;8.542;2023-04-10T08:32:00;16.30;57.70
3055;DHT22;1537;52.018;8.542;2023-04-10T08:35:23;16.40;58.30
3055;DHT22;1537;52.018;8.542;2023-04-10T08:38:47;16.60;57.20
3055;DHT22;1537;52.018;8.542;2023-04-10T08:42:12;17.00;56.50
3055;DHT22;1537;52.018;8.542;2023-04-10T08:45:38;16.90;56.30
3055;DHT22;1537;52.018;8.542;2023-04-10T08:49:03;16.30;57.20
3055;DHT22;1537;52.018;8.542;2023-04-10T08:52:29;16.00;57.00
3055;DHT22;1537;52.018;8.542;2023-04-10T08:55:53;15.90;58.40
3055;DHT22;1537;52.018;8.542;2023-04-10T08:59:19;15.90;58.00
3055;DHT22;1537;52.018;8.542;2023-04-10T09:02:42;15.80;58.60
3055;DHT22;1537;52.018;8.542;2023-04-10T09:06:08;15.30;59.20
3055;DHT22;1537;52.018;8.542;2023-04-10T09:09:32;15.60;60.30
3055;DHT22;1537;52.018;8.542;2023-04-10T09:12:56;16.60;58.90
3055;DHT22;1537;52.018;8.542;2023-04-10T09:16:27;16.10;58.20
3055;DHT22;1537;52.018;8.542;2023-04-10T09:19:53;16.00;58.30
3055;DHT22;1537;52.018;8.542;2023-04-10T09:23:20;16.60;58.10
3055;DHT22;1537;52.018;8.542;2023-04-10T09:26:44;18.00;55.30
3055;DHT22;1537;52.018;8.542;2023-04-10T09:30:08;18.40;55.10
3055;DHT22;1537;52.018;8.542;2023-04-10T09:33:33;18.10;52.40
3055;DHT22;1537;52.018;8.542;2023-04-10T09:36:59;17.20;54.60
3055;DHT22;1537;52.018;8.542;2023-04-10T09:40:24;17.10;53.90
3055;DHT22;1537;52.018;8.542;2023-04-10T09:43:48;17.20;54.10
3055;DHT22;1537;52.018;8.542;2023-04-10T09:47:16;17.70;52.50
3055;DHT22;1537;52.018;8.542;2023-04-10T09:50:41;18.70;51.70
3055;DHT22;1537;52.018;8.542;2023-04-10T09:54:05;18.60;50.70
3055;DHT22;1537;52.018;8.542;2023-04-10T09:57:31;19.20;50.10
3055;DHT22;1537;52.018;8.542;2023-04-10T10:00:55;19.00;48.40
3055;DHT22;1537;52.018;8.542;2023-04-10T10:04:19;18.70;48.60
3055;DHT22;1537;52.018;8.542;2023-04-10T10:07:45;18.70;48.10
3055;DHT22;1537;52.018;8.542;2023-04-10T10:11:09;18.40;48.40
3055;DHT22;1537;52.018;8.542;2023-04-10T10:14:36;18.10;47.40
3055;DHT22;1537;52.018;8.542;2023-04-10T10:18:08;18.60;48.80
3055;DHT22;1537;52.018;8.542;2023-04-10T10:21:35;18.20;46.90
3055;DHT22;1537;52.018;8.542;2023-04-10T10:25:02;17.90;47.80
3055;DHT22;1537;52.018;8.542;2023-04-10T10:28:27;17.20;46.90
3055;DHT22;1537;52.018;8.542;2023-04-10T10:31:54;17.00;47.00
3055;DHT22;1537;52.018;8.542;2023-04-10T10:35:18;17.20;47.00
3055;DHT22;1537;52.018;8.542;2023-04-10T10:38:52;17.40;46.30
3055;DHT22;1537;52.018;8.542;2023-04-10T10:42:28;17.10;46.90
3055;DHT22;1537;52.018;8.542;2023-04-10T10:45:56;17.30;46.20
3055;DHT22;1537;52.018;8.542;2023-04-10T10:49:54;17.60;46.20
3055;DHT22;1537;52.018;8.542;2023-04-10T10:53:36;17.70;46.40
3055;DHT22;1537;52.018;8.542;2023-04-10T10:57:02;17.30;46.70
3055;DHT22;1537;52.018;8.542;2023-04-10T11:04:43;17.00;46.60
3055;DHT22;1537;52.018;8.542;2023-04-10T11:08:08;16.80;46.70
3055;DHT22;1537;52.018;8.542;2023-04-10T11:11:57;16.90;46.90
3055;DHT22;1537;52.018;8.542;2023-04-10T11:15:22;16.80;46.40
3055;DHT22;1537;52.018;8.542;2023-04-10T11:19:03;17.00;46.80
3055;DHT22;1537;52.018;8.542;2023-04-10T11:23:05;17.00;47.10
3055;DHT22;1537;52.018;8.542;2023-04-10T11:26:36;17.00;47.00
3055;DHT22;1537;52.018;8.542;2023-04-10T11:30:03;16.50;46.70
3055;DHT22;1537;52.018;8.542;2023-04-10T11:33:27;16.50;47.20
3055;DHT22;1537;52.018;8.542;2023-04-10T11:36:51;16.50;47.20
3055;DHT22;1537;52.018;8.542;2023-04-10T11:40:16;16.50;48.80
3055;DHT22;1537;52.018;8.542;2023-04-10T11:43:40;16.60;49.00
3055;DHT22;1537;52.018;8.542;2023-04-10T11:47:03;16.70;48.60
3055;DHT22;1537;52.018;8.542;2023-04-10T11:50:28;16.90;49.10
3055;DHT22;1537;52.018;8.542;2023-04-10T11:54:04;16.60;48.70
3055;DHT22;1537;52.018;8.542;2023-04-10T11:57:33;16.90;48.50
3055;DHT22;1537;52.018;8.542;2023-04-10T12:01:01;17.00;48.20
3055;DHT22;1537;52.018;8.542;2023-04-10T12:04:26;17.10;47.80
3055;DHT22;1537;52.018;8.542;2023-04-10T12:07:50;17.30;47.50
3055;DHT22;1537;52.018;8.542;2023-04-10T12:11:17;17.60;46.70
3055;DHT22;1537;52.018;8.542;2023-04-10T12:14:43;17.20;45.80
3055;DHT22;1537;52.018;8.542;2023-04-10T12:18:08;17.20;46.60
3055;DHT22;1537;52.018;8.542;2023-04-10T12:21:34;17.20;46.80
3055;DHT22;1537;52.018;8.542;2023-04-10T12:24:58;17.30;45.80
3055;DHT22;1537;52.018;8.542;2023-04-10T12:28:22;17.40;46.60
3055;DHT22;1537;52.018;8.542;2023-04-10T12:31:47;17.40;45.80
3055;DHT22;1537;52.018;8.542;2023-04-10T12:35:11;17.10;45.60
3055;DHT22;1537;52.018;8.542;2023-04-10T12:38:40;16.90;45.90
3055;DHT22;1537;52.018;8.542;2023-04-10T12:42:10;17.00;46.20
3055;DHT22;1537;52.018;8.542;2023-04-10T12:45:40;17.20;45.10
3055;DHT22;1537;52.018;8.542;2023-04-10T12:49:10;17.20;45.00
3055;DHT22;1537;52.018;8.542;2023-04-10T12:52:36;17.20;43.90
3055;DHT22;1537;52.018;8.542;2023-04-10T12:56:02;17.10;44.60
3055;DHT22;1537;52.018;8.542;2023-04-10T12:59:28;17.10;43.90
3055;DHT22;1537;52.018;8.542;2023-04-10T13:02:52;17.20;44.20
3055;DHT22;1537;52.018;8.542;2023-04-10T13:06:17;17.30;44.60
3055;DHT22;1537;52.018;8.542;2023-04-10T13:09:41;17.20;44.00
3055;DHT22;1537;52.018;8.542;2023-04-10T13:13:05;17.30;44.10
3055;DHT22;1537;52.018;8.542;2023-04-10T13:16:29;17.30;43.10
3055;DHT22;1537;52.018;8.542;2023-04-10T13:19:53;17.40;43.10
3055;DHT22;1537;52.018;8.542;2023-04-10T13:23:18;17.30;43.00
3055;DHT22;1537;52.018;8.542;2023-04-10T13:26:42;17.50;43.20
3055;DHT22;1537;52.018;8.542;2023-04-10T13:30:07;17.70;43.50
3055;DHT22;1537;52.018;8.542;2023-04-10T13:33:31;17.80;41.50
3055;DHT22;1537;52.018;8.542;2023-04-10T13:36:54;17.60;42.30
3055;DHT22;1537;52.018;8.542;2023-04-10T13:40:20;17.50;42.30
3055;DHT22;1537;52.018;8.542;2023-04-10T13:43:44;17.60;42.70
3055;DHT22;1537;52.018;8.542;2023-04-10T13:47:07;17.60;41.50
3055;DHT22;1537;52.018;8.542;2023-04-10T13:50:31;17.30;41.50
3055;DHT22;1537;52.018;8.542;2023-04-10T13:53:55;17.40;41.70
3055;DHT22;1537;52.018;8.542;2023-04-10T13:57:20;17.60;41.40
3055;DHT22;1537;52.018;8.542;2023-04-10T14:00:44;17.80;41.70
3055;DHT22;1537;52.018;8.542;2023-04-10T14:04:07;17.60;42.20
3055;DHT22;1537;52.018;8.542;2023-04-10T14:07:31;17.70;42.10
3055;DHT22;1537;52.018;8.542;2023-04-10T14:10:55;17.50;41.90
3055;DHT22;1537;52.018;8.542;2023-04-10T14:14:20;17.40;42.50
3055;DHT22;1537;52.018;8.542;2023-04-10T14:17:45;17.50;42.60
3055;DHT22;1537;52.018;8.542;2023-04-10T14:21:09;17.60;42.40
3055;DHT22;1537;52.018;8.542;2023-04-10T14:24:32;17.60;42.50
3055;DHT22;1537;52.018;8.542;2023-04-10T14:27:56;17.70;41.80
3055;DHT22;1537;52.018;8.542;2023-04-10T14:31:21;17.70;42.30
3055;DHT22;1537;52.018;8.542;2023-04-10T14:34:45;17.70;42.90
3055;DHT22;1537;52.018;8.542;2023-04-10T14:38:09;17.80;42.80
3055;DHT22;1537;52.018;8.542;2023-04-10T14:41:33;17.60;42.40
3055;DHT22;1537;52.018;8.542;2023-04-10T14:44:56;17.40;42.80
3055;DHT22;1537;52.018;8.542;2023-04-10T14:48:21;17.30;43.10
3055;DHT22;1537;52.018;8.542;2023-04-10T14:51:45;17.30;43.10
3055;DHT22;1537;52.018;8.542;2023-04-10T14:55:10;17.30;41.70
3055;DHT22;1537;52.018;8.542;2023-04-10T14:58:33;17.40;42.20
3055;DHT22;1537;52.018;8.542;2023-04-10T15:01:57;17.50;42.20
3055;DHT22;1537;52.018;8.542;2023-04-10T15:05:26;17.40;42.40
3055;DHT22;1537;52.018;8.542;2023-04-10T15:08:50;17.30;42.30
3055;DHT22;1537;52.018;8.542;2023-04-10T15:12:13;17.30;42.50
3055;DHT22;1537;52.018;8.542;2023-04-10T15:15:38;17.30;41.70
3055;DHT22;1537;52.018;8.542;2023-04-10T15:19:01;17.30;41.00
3055;DHT22;1537;52.018;8.542;2023-04-10T15:22:26;17.30;40.70
3055;DHT22;1537;52.018;8.542;2023-04-10T15:25:50;17.40;41.00
3055;DHT22;1537;52.018;8.542;2023-04-10T15:29:14;17.50;41.30
3055;DHT22;1537;52.018;8.542;2023-04-10T15:32:38;17.30;41.70
3055;DHT22;1537;52.018;8.542;2023-04-10T15:36:03;17.20;41.70
3055;DHT22;1537;52.018;8.542;2023-04-10T15:39:28;17.10;42.00
3055;DHT22;1537;52.018;8.542;2023-04-10T15:42:52;17.10;42.20
3055;DHT22;1537;52.018;8.542;2023-04-10T15:46:15;17.20;42.50
3055;DHT22;1537;52.018;8.542;2023-04-10T15:49:40;17.20;42.50
3055;DHT22;1537;52.018;8.542;2023-04-10T15:53:04;17.20;42.70
3055;DHT22;1537;52.018;8.542;2023-04-10T15:56:29;17.20;42.30
3055;DHT22;1537;52.018;8.542;2023-04-10T15:59:52;17.20;42.60
3055;DHT22;1537;52.018;8.542;2023-04-10T16:03:17;17.20;42.80
3055;DHT22;1537;52.018;8.542;2023-04-10T16:06:41;17.10;42.90
3055;DHT22;1537;52.018;8.542;2023-04-10T16:10:06;17.20;43.00
3055;DHT22;1537;52.018;8.542;2023-04-10T16:13:31;17.10;43.00
3055;DHT22;1537;52.018;8.542;2023-04-10T16:16:55;17.10;43.10
3055;DHT22;1537;52.018;8.542;2023-04-10T16:20:19;17.10;43.00
3055;DHT22;1537;52.018;8.542;2023-04-10T16:23:42;17.00;43.30
3055;DHT22;1537;52.018;8.542;2023-04-10T16:27:06;17.00;43.40
3055;DHT22;1537;52.018;8.542;2023-04-10T16:30:31;17.00;43.20
3055;DHT22;1537;52.018;8.542;2023-04-10T16:33:55;17.00;43.20
3055;DHT22;1537;52.018;8.542;2023-04-10T16:37:19;16.90;43.50
3055;DHT22;1537;52.018;8.542;2023-04-10T16:40:42;16.80;43.10
3055;DHT22;1537;52.018;8.542;2023-04-10T16:44:06;16.70;43.30
3055;DHT22;1537;52.018;8.542;2023-04-10T16:47:31;16.70;43.60
3055;DHT22;1537;52.018;8.542;2023-04-10T16:50:55;16.60;44.10
3055;DHT22;1537;52.018;8.542;2023-04-10T16:54:25;16.60;44.80
3055;DHT22;1537;52.018;8.542;2023-04-10T16:57:49;16.60;44.10
3055;DHT22;1537;52.018;8.542;2023-04-10T17:01:14;16.50;44.30
3055;DHT22;1537;52.018;8.542;2023-04-10T17:04:42;16.50;44.30
3055;DHT22;1537;52.018;8.542;2023-04-10T17:08:05;16.40;44.80
3055;DHT22;1537;52.018;8.542;2023-04-10T17:11:29;16.40;45.00
3055;DHT22;1537;52.018;8.542;2023-04-10T17:14:53;16.40;44.90
3055;DHT22;1537;52.018;8.542;2023-04-10T17:18:17;16.40;45.20
3055;DHT22;1537;52.018;8.542;2023-04-10T17:21:42;16.40;45.10
3055;DHT22;1537;52.018;8.542;2023-04-10T17:25:06;16.40;45.60
3055;DHT22;1537;52.018;8.542;2023-04-10T17:28:30;16.30;45.80
3055;DHT22;1537;52.018;8.542;2023-04-10T17:31:54;16.20;46.00
3055;DHT22;1537;52.018;8.542;2023-04-10T17:35:18;16.20;46.30
3055;DHT22;1537;52.018;8.542;2023-04-10T17:38:43;16.10;46.50
3055;DHT22;1537;52.018;8.542;2023-04-10T17:42:07;16.10;46.70
3055;DHT22;1537;52.018;8.542;2023-04-10T17:45:31;16.10;46.70
3055;DHT22;1537;52.018;8.542;2023-04-10T17:48:54;16.10;46.60
3055;DHT22;1537;52.018;8.542;2023-04-10T17:52:23;16.00;47.00
3055;DHT22;1537;52.018;8.542;2023-04-10T17:55:48;16.00;47.00
3055;DHT22;1537;52.018;8.542;2023-04-10T17:59:11;15.90;47.30
3055;DHT22;1537;52.018;8.542;2023-04-10T18:02:35;15.90;47.60
3055;DHT22;1537;52.018;8.542;2023-04-10T18:05:59;15.80;47.30
3055;DHT22;1537;52.018;8.542;2023-04-10T18:09:23;15.80;47.80
3055;DHT22;1537;52.018;8.542;2023-04-10T18:12:48;15.80;47.50
3055;DHT22;1537;52.018;8.542;2023-04-10T18:16:12;15.80;48.00
3055;DHT22;1537;52.018;8.542;2023-04-10T18:19:35;15.70;47.90
3055;DHT22;1537;52.018;8.542;2023-04-10T18:22:59;15.70;47.80
3055;DHT22;1537;52.018;8.542;2023-04-10T18:26:27;15.70;47.70
3055;DHT22;1537;52.018;8.542;2023-04-10T18:29:55;15.70;47.80
3055;DHT22;1537;52.018;8.542;2023-04-10T18:33:19;15.70;47.30
3055;DHT22;1537;52.018;8.542;2023-04-10T18:36:45;15.70;47.30
3055;DHT22;1537;52.018;8.542;2023-04-10T18:40:09;15.70;47.20
3055;DHT22;1537;52.018;8.542;2023-04-10T18:43:38;15.70;47.60
3055;DHT22;1537;52.018;8.542;2023-04-10T18:47:03;15.60;47.70
3055;DHT22;1537;52.018;8.542;2023-04-10T18:50:27;15.60;47.90
3055;DHT22;1537;52.018;8.542;2023-04-10T18:53:50;15.60;48.10
3055;DHT22;1537;52.018;8.542;2023-04-10T18:57:15;15.60;47.70
3055;DHT22;1537;52.018;8.542;2023-04-10T19:00:38;15.60;47.70
3055;DHT22;1537;52.018;8.542;2023-04-10T19:04:03;15.50;48.10
3055;DHT22;1537;52.018;8.542;2023-04-10T19:07:27;15.50;49.10
3055;DHT22;1537;52.018;8.542;2023-04-10T19:10:51;15.40;47.50
3055;DHT22;1537;52.018;8.542;2023-04-10T19:14:14;15.40;47.80
3055;DHT22;1537;52.018;8.542;2023-04-10T19:17:41;15.40;47.40
3055;DHT22;1537;52.018;8.542;2023-04-10T19:21:06;15.40;47.70
3055;DHT22;1537;52.018;8.542;2023-04-10T19:24:31;15.40;47.80
3055;DHT22;1537;52.018;8.542;2023-04-10T19:27:55;15.40;47.90
3055;DHT22;1537;52.018;8.542;2023-04-10T19:31:18;15.40;48.90
3055;DHT22;1537;52.018;8.542;2023-04-10T19:34:43;15.30;49.50
3055;DHT22;1537;52.018;8.542;2023-04-10T19:38:13;15.20;49.40
3055;DHT22;1537;52.018;8.542;2023-04-10T19:41:37;15.10;50.20
3055;DHT22;1537;52.018;8.542;2023-04-10T19:45:04;15.00;54.50
3055;DHT22;1537;52.018;8.542;2023-04-10T19:48:27;14.60;62.80
3055;DHT22;1537;52.018;8.542;2023-04-10T19:51:51;14.10;80.60
3055;DHT22;1537;52.018;8.542;2023-04-10T19:55:16;13.60;92.20
3055;DHT22;1537;52.018;8.542;2023-04-10T19:58:41;13.10;97.40
3055;DHT22;1537;52.018;8.542;2023-04-10T20:02:17;12.80;99.90
3055;DHT22;1537;52.018;8.542;2023-04-10T20:05:41;12.40;99.90
3055;DHT22;1537;52.018;8.542;2023-04-10T20:09:05;12.00;99.90
3055;DHT22;1537;52.018;8.542;2023-04-10T20:12:30;11.70;99.90
3055;DHT22;1537;52.018;8.542;2023-04-10T20:15:55;11.50;99.90
3055;DHT22;1537;52.018;8.542;2023-04-10T20:19:19;11.40;99.90
3055;DHT22;1537;52.018;8.542;2023-04-10T20:22:42;11.30;99.90
3055;DHT22;1537;52.018;8.542;2023-04-10T20:26:06;11.20;99.90
3055;DHT22;1537;52.018;8.542;2023-04-10T20:29:31;11.10;99.90
3055;DHT22;1537;52.018;8.542;2023-04-10T20:32:55;11.10;99.90
3055;DHT22;1537;52.018;8.542;2023-04-10T20:36:19;11.20;99.90
3055;DHT22;1537;52.018;8.542;2023-04-10T20:39:43;11.20;99.90
3055;DHT22;1537;52.018;8.542;2023-04-10T20:43:07;11.20;99.90
3055;DHT22;1537;52.018;8.542;2023-04-10T20:46:34;11.30;99.90
3055;DHT22;1537;52.018;8.542;2023-04-10T20:49:58;11.30;99.90
3055;DHT22;1537;52.018;8.542;2023-04-10T20:53:22;11.30;99.90
3055;DHT22;1537;52.018;8.542;2023-04-10T20:56:46;11.30;99.90
3055;DHT22;1537;52.018;8.542;2023-04-10T21:00:11;11.30;99.90
3055;DHT22;1537;52.018;8.542;2023-04-10T21:03:36;11.40;99.90
3055;DHT22;1537;52.018;8.542;2023-04-10T21:07:01;11.50;99.90
3055;DHT22;1537;52.018;8.542;2023-04-10T21:10:25;11.60;99.90
3055;DHT22;1537;52.018;8.542;2023-04-10T21:13:48;11.50;99.90
3055;DHT22;1537;52.018;8.542;2023-04-10T21:17:13;11.50;99.90
3055;DHT22;1537;52.018;8.542;2023-04-10T21:20:38;11.40;99.90
3055;DHT22;1537;52.018;8.542;2023-04-10T21:24:02;11.40;99.90
3055;DHT22;1537;52.018;8.542;2023-04-10T21:27:26;11.30;99.90
3055;DHT22;1537;52.018;8.542;2023-04-10T21:30:49;11.20;99.90
3055;DHT22;1537;52.018;8.542;2023-04-10T21:34:13;11.10;99.90
3055;DHT22;1537;52.018;8.542;2023-04-10T21:37:38;11.00;99.90
3055;DHT22;1537;52.018;8.542;2023-04-10T21:41:02;11.00;99.90
3055;DHT22;1537;52.018;8.542;2023-04-10T21:44:26;11.10;99.90
3055;DHT22;1537;52.018;8.542;2023-04-10T21:47:49;11.00;99.90
3055;DHT22;1537;52.018;8.542;2023-04-10T21:51:13;11.00;99.90
3055;DHT22;1537;52.018;8.542;2023-04-10T21:54:38;11.00;99.90
3055;DHT22;1537;52.018;8.542;2023-04-10T21:58:02;10.90;99.90
3055;DHT22;1537;52.018;8.542;2023-04-10T22:01:25;10.90;99.90
3055;DHT22;1537;52.018;8.542;2023-04-10T22:04:50;10.90;99.90
3055;DHT22;1537;52.018;8.542;2023-04-10T22:08:16;10.90;99.90
3055;DHT22;1537;52.018;8.542;2023-04-10T22:11:42;10.90;99.90
3055;DHT22;1537;52.018;8.542;2023-04-10T22:15:07;10.80;99.90
3055;DHT22;1537;52.018;8.542;2023-04-10T22:18:31;10.70;99.90
3055;DHT22;1537;52.018;8.542;2023-04-10T22:21:55;10.50;99.90
3055;DHT22;1537;52.018;8.542;2023-04-10T22:25:19;10.40;99.90
3055;DHT22;1537;52.018;8.542;2023-04-10T22:28:44;10.40;99.90
3055;DHT22;1537;52.018;8.542;2023-04-10T22:32:07;10.30;99.90
3055;DHT22;1537;52.018;8.542;2023-04-10T22:35:31;10.30;99.90
3055;DHT22;1537;52.018;8.542;2023-04-10T22:38:55;10.10;99.90
3055;DHT22;1537;52.018;8.542;2023-04-10T22:42:19;10.10;99.90